Rochedo, Brazil
Current Conditions -  °F | °C
As of 9:00 AM on Friday 28 Nov 2014 (Local Time) from SBCG Reporting Station
Few Clouds Few Clouds  
Wind Chill: 81°   Ceiling: Unl
Heat Index: 83°   Visibility: 6mi
Dew Point: 66°   Wind: 12mph
Humidity: 61%   Direction: 60°ENE
Pressure: 29.94"   Gusts: NA
Location:  19.95°S, 54.87°W
Report Text: SBCG 281200Z 06010KT 9999 FEW046 27/19 Q1014
Loading
Personal Weather Stations






























Interactive Weather Map New forecast layout! Learn more

10-Day Weather Forecast

Advertisements
Track Severe Weather on mobile